Flight Track Log - Related Links

Times and Time Zones

All times are in EST time to prevent confusion due to time zone crossing. See the DAL6234 flight status page for this flight to view local times or setup timezone preferences in your user account.

Time Position Orientation Groundspeed Altitude Reporting Facility
EST Latitude Longitude Course Direction KTS MPH feet Rate Location/Type
Wed 08:32:16 PM 40.8167 -73.8667 323° Northwest 172 198 2,300  Level New York TRACON
Wed 08:33:16 PM 40.8667 -73.9167 323° Northwest 217 250 4,800 2,850 Climbing New York TRACON
Wed 08:34:16 PM 40.9000 -73.9833 303° West 240 276 8,000 3,158 Climbing New York TRACON
Wed 08:35:10 PM 40.8833 -74.0667 255° West 243 280 10,800 2,263 Climbing New York TRACON
Wed 08:36:10 PM 40.8667 -74.1500 255° West 280 322 12,300 1,572 Climbing New York TRACON
Wed 08:38:17 PM 40.8206 -74.3961 256° West 337 388 15,700 1,540 Climbing New York Center
Wed 08:39:17 PM 40.7956 -74.5264 256° West 337 388 17,100 650 Climbing New York Center
Wed 08:40:17 PM 40.7733 -74.6403 256° West 343 395 17,000 450 Descending New York Center
Wed 08:41:17 PM 40.7458 -74.7700 254° West 343 395 18,000 1,400 Climbing New York Center
Wed 08:42:17 PM 40.7236 -74.8756 255° West 343 395 19,800 1,700 Climbing New York Center
Wed 08:43:17 PM 40.7006 -74.9975 256° West 338 389 21,400 1,450 Climbing New York Center
Wed 08:44:17 PM 40.6669 -75.1183 250° West 338 389 22,700 1,250 Climbing New York Center
Wed 08:45:17 PM 40.6128 -75.2297 237° Southwest 349 402 23,900 1,200 Climbing New York Center
Wed 08:46:17 PM 40.5625 -75.3442 240° Southwest 361 415 25,100 1,200 Climbing New York Center
Wed 08:47:17 PM 40.5122 -75.4581 240° Southwest 366 421 26,300 1,200 Climbing New York Center
Wed 08:48:17 PM 40.4578 -75.5689 237° Southwest 373 429 27,500 1,200 Climbing New York Center
Wed 08:49:17 PM 40.4072 -75.6828 240° Southwest 368 423 28,700 1,200 Climbing New York Center
Wed 08:50:17 PM 40.3569 -75.7908 239° Southwest 368 423 29,900 1,200 Climbing New York Center
Wed 08:51:17 PM 40.3083 -75.9017 240° Southwest 368 423 31,100 1,200 Climbing New York Center
Wed 08:52:17 PM 40.2467 -76.0222 236° Southwest 367 422 32,300 900 Climbing New York Center
Wed 08:53:17 PM 40.1961 -76.1269 238° Southwest 356 410 32,900 550 Climbing New York Center
Wed 08:54:17 PM 40.1542 -76.2244 241° Southwest 349 402 33,400 550 Climbing New York Center
Wed 08:55:17 PM 40.0989 -76.3394 238° Southwest 362 417 34,000 600 Climbing New York Center
Wed 08:56:17 PM 40.0478 -76.4492 239° Southwest 362 417 34,600 650 Climbing New York Center
Wed 08:57:17 PM 39.9961 -76.5642 240° Southwest 362 417 35,300 650 Climbing New York Center
Wed 08:58:17 PM 39.9447 -76.6764 239° Southwest 367 422 35,900 587 Climbing New York Center
Wed 09:00:21 PM 39.8358 -76.9019 238° Southwest 375 432 37,100 587 Climbing Washington Center
Wed 09:01:21 PM 39.7825 -77.0144 238° Southwest 375 432 37,700 454 Climbing Washington Center
Wed 09:02:20 PM 39.7311 -77.1214 238° Southwest 370 426 38,000 150 Climbing Washington Center
Wed 09:03:21 PM 39.6775 -77.2333 238° Southwest 370 426 38,000  Level Washington Center
Wed 09:04:21 PM 39.6217 -77.3533 239° Southwest 376 433 38,000  Level Washington Center
Wed 09:05:22 PM 39.5678 -77.4678 239° Southwest 382 440 38,000  Level Washington Center
Wed 09:06:20 PM 39.5117 -77.5847 238° Southwest 382 440 38,000  Level Washington Center
Wed 09:07:20 PM 39.4556 -77.7014 238° Southwest 382 440 38,000  Level Washington Center
Wed 09:08:19 PM 39.4014 -77.8181 239° Southwest 382 440 38,000  Level Washington Center
Wed 09:09:21 PM 39.3492 -77.9372 240° Southwest 382 440 38,000  Level Washington Center
Wed 09:10:20 PM 39.3031 -78.0592 244° Southwest 382 440 38,000  Level Washington Center
Wed 09:11:21 PM 39.2525 -78.1781 241° Southwest 382 440 38,000  Level Washington Center
Wed 09:12:21 PM 39.2083 -78.2889 243° Southwest 387 445 38,000  Level Washington Center
Wed 09:13:20 PM 39.1508 -78.4367 243° Southwest 387 445 38,000  Level Washington Center
Wed 09:14:21 PM 39.1019 -78.5581 243° Southwest 387 445 38,000  Level Washington Center
Wed 09:15:21 PM 39.0622 -78.6500 241° Southwest 387 445 38,000  Level Washington Center
Wed 09:16:22 PM 39.0042 -78.7969 243° Southwest 382 440 38,000  Level Washington Center
Wed 09:17:20 PM 38.9550 -78.9178 242° Southwest 382 440 38,000  Level Washington Center
Wed 09:18:20 PM 38.9078 -79.0356 243° Southwest 382 440 38,000  Level Washington Center
Wed 09:19:21 PM 38.8586 -79.1558 242° Southwest 382 440 38,000  Level Washington Center
Wed 09:20:21 PM 38.8256 -79.2797 251° West 382 440 38,000  Level Washington Center
Wed 09:21:21 PM 38.8028 -79.4089 257° West 370 426 38,000  Level Washington Center
Wed 09:22:20 PM 38.7850 -79.5067 257° West 370 426 38,000  Level Washington Center
Wed 09:23:21 PM 38.7614 -79.6519 258° West 379 436 38,000  Level Washington Center
Wed 09:24:22 PM 38.7381 -79.7836 257° West 379 436 38,000  Level Washington Center
Wed 09:25:23 PM 38.7117 -79.9053 255° West 369 425 38,000  Level Indianapolis Center
Wed 09:26:24 PM 38.6872 -80.0339 256° West 369 425 38,000  Level Indianapolis Center
Wed 09:27:26 PM 38.6619 -80.1625 256° West 370 426 38,000  Level Indianapolis Center
Wed 09:28:27 PM 38.6339 -80.3169 257° West 370 426 38,000  Level Indianapolis Center
Wed 09:29:29 PM 38.6092 -80.4461 256° West 370 426 38,000  Level Indianapolis Center
Wed 09:30:30 PM 38.5839 -80.5758 256° West 371 427 38,000  Level Indianapolis Center
Wed 09:31:32 PM 38.5597 -80.7039 256° West 371 427 38,000  Level Indianapolis Center
Wed 09:32:33 PM 38.5339 -80.8336 256° West 371 427 38,000  Level Indianapolis Center
Wed 09:33:35 PM 38.5092 -80.9631 256° West 371 427 38,000  Level Indianapolis Center
Wed 09:34:36 PM 38.4847 -81.0919 256° West 372 428 38,000  Level Indianapolis Center
Wed 09:35:38 PM 38.4603 -81.2203 256° West 372 428 38,000  Level Indianapolis Center
Wed 09:36:39 PM 38.4344 -81.3489 256° West 371 427 38,000  Level Indianapolis Center
Wed 09:37:41 PM 38.4097 -81.4778 256° West 371 427 38,000  Level Indianapolis Center
Wed 09:38:42 PM 38.3839 -81.6056 256° West 371 427 38,000  Level Indianapolis Center
Wed 09:39:44 PM 38.3572 -81.7333 255° West 371 427 38,000  Level Indianapolis Center
Wed 09:40:45 PM 38.3258 -81.8592 252° West 371 427 38,000  Level Indianapolis Center
Wed 09:41:47 PM 38.2833 -82.0094 250° West 371 427 38,000  Level Indianapolis Center
Wed 09:42:48 PM 38.2486 -82.1339 250° West 371 427 38,000  Level Indianapolis Center
Wed 09:43:49 PM 38.2136 -82.2567 250° West 371 427 38,000  Level Indianapolis Center
Wed 09:44:51 PM 38.1781 -82.3817 250° West 372 428 38,000  Level Indianapolis Center
Wed 09:45:52 PM 38.1419 -82.5089 250° West 371 427 38,000  Level Indianapolis Center
Wed 09:46:54 PM 38.1067 -82.6317 250° West 371 427 38,000 -488 Level Indianapolis Center
Wed 09:47:55 PM 38.0706 -82.7550 250° West 371 427 37,000 -976 Descending Indianapolis Center
Wed 09:48:57 PM 38.0367 -82.8736 250° West 363 418 36,000 -488 Descending Indianapolis Center
Wed 09:49:58 PM 38.0036 -82.9861 250° West 348 400 36,000 -49 Level Indianapolis Center
Wed 09:51:00 PM 37.9633 -83.1225 250° West 349 402 35,900 -341 Descending Indianapolis Center
Wed 09:52:01 PM 37.9286 -83.2419 250° West 357 411 35,300 -634 Descending Indianapolis Center
Wed 09:53:03 PM 37.8936 -83.3600 249° West 357 411 34,600 -634 Descending Indianapolis Center
Wed 09:54:04 PM 37.8583 -83.4797 250° West 359 413 34,000 -293 Descending Indianapolis Center
Wed 09:55:06 PM 37.8228 -83.5975 249° West 360 414 34,000 -341 Level Indianapolis Center
Wed 09:56:07 PM 37.7867 -83.7186 249° West 362 417 33,300 -780 Descending Indianapolis Center
Wed 09:57:09 PM 37.7497 -83.8400 249° West 367 422 32,400 -634 Descending Indianapolis Center
Wed 09:58:10 PM 37.7083 -83.9806 250° West 368 423 32,000 -197 Descending Indianapolis Center
Wed 09:59:11 PM 37.6711 -84.1022 249° West 369 425 32,000  Level Indianapolis Center
Wed 10:00:13 PM 37.6108 -84.2081 234° Southwest 375 432 32,000  Level Indianapolis Center
Wed 10:01:14 PM 37.5333 -84.3017 224° Southwest 381 438 32,000  Level Indianapolis Center
Wed 10:02:15 PM 37.4558 -84.3947 224° Southwest 383 441 32,000  Level Indianapolis Center
Wed 10:03:17 PM 37.3753 -84.4900 223° Southwest 392 451 32,000  Level Indianapolis Center
Wed 10:04:18 PM 37.2928 -84.5861 223° Southwest 400 460 32,000  Level Indianapolis Center
Wed 10:05:19 PM 37.2114 -84.6847 224° Southwest 404 465 32,000  Level Indianapolis Center
Wed 10:06:21 PM 37.1147 -84.7975 223° Southwest 405 466 32,000 -98 Level Indianapolis Center
Wed 10:07:22 PM 37.0331 -84.8953 224° Southwest 402 463 31,800 -1,082 Descending Indianapolis Center
Wed 10:08:23 PM 36.9525 -84.9886 223° Southwest 399 459 29,800 -2,000 Descending Indianapolis Center
Wed 10:09:25 PM 36.8956 -85.0947 236° Southwest 370 426 27,700 -2,098 Descending Indianapolis Center
Wed 10:10:26 PM 36.8394 -85.2142 240° Southwest 388 447 25,500 -2,213 Descending Indianapolis Center
Wed 10:11:27 PM 36.7828 -85.3364 240° Southwest 403 464 23,200 -1,918 Descending Indianapolis Center
Wed 10:12:28 PM 36.7261 -85.4556 239° Southwest 403 464 21,600 -1,951 Descending Indianapolis Center
Wed 10:13:30 PM 36.6717 -85.5681 239° Southwest 389 448 19,200 -2,488 Descending Indianapolis Center
Wed 10:14:31 PM 36.6203 -85.6767 240° Southwest 371 427 16,500 -2,656 Descending Indianapolis Center
Wed 10:15:32 PM 36.5678 -85.7881 240° Southwest 371 427 13,800 -2,656 Descending Indianapolis Center
Wed 10:16:33 PM 36.5086 -85.9136 240° Southwest 370 426 11,100 -1,918 Descending Indianapolis Center
Wed 10:17:34 PM 36.4597 -86.0156 239° Southwest 351 404 9,900 -585 Descending Indianapolis Center
Wed 10:18:36 PM 36.4114 -86.1181 240° Southwest 345 397 9,900  Level Indianapolis Center
Wed 10:19:37 PM 36.3614 -86.2197 239° Southwest 344 396 9,900 -344 Level Indianapolis Center
Wed 10:20:38 PM 36.3225 -86.3008 239° Southwest 277 319 9,200 -1,131 Descending Indianapolis Center
Wed 10:21:39 PM 36.2875 -86.3733 239° Southwest 248 285 7,600 -1,561 Descending Indianapolis Center
Wed 10:22:41 PM 36.2539 -86.4442 240° Southwest 241 277 6,000 -780 Descending Indianapolis Center
Wed 10:23:42 PM 36.2211 -86.5100 238° Southwest 226 260 6,000  Level Indianapolis Center
Wed 10:24:13 PM 36.1833 -86.5333 206° Southwest 229 264 6,000 -593 Level Nashville TRACON
Wed 10:25:13 PM 36.1333 -86.5500 195° South 228 262 5,100 -1,100 Descending Nashville TRACON
Wed 10:26:13 PM 36.0667 -86.5667 191° South 225 259 3,800 -1,150 Descending Nashville TRACON
Wed 10:27:13 PM 36.0167 -86.6167 219° Southwest 211 243 2,800 -950 Descending Nashville TRACON
Wed 10:28:13 PM 36.0333 -86.6667 292° West 170 196 1,900 -450 Descending Nashville TRACON
Wed 10:29:13 PM 36.0667 -86.7000 321° Northwest 131 151 1,900 -347 Level Nashville TRACON
Wed 10:30:14 PM 36.1000 -86.7000 360° North 119 137 1,200 -629 Descending Nashville TRACON
Wed 10:31:17 PM 36.1283 -86.6817 28° Northeast 131 151 600 -571 Descending Memphis Center

Login

Don't have an account? Register now (free) for customized features, flight alerts, and more!